createdAt,value
2022-08-28T00:01:35.178Z,-23732.91
2022-08-28T00:03:37.929Z,-23732.59
2022-08-28T00:05:43.506Z,-23736.06
2022-08-28T00:07:47.934Z,-23737.16
2022-08-28T00:09:50.855Z,-23737.63
2022-08-28T00:11:53.811Z,-23739.84
2022-08-28T00:13:56.789Z,-23737.31
2022-08-28T00:16:01.727Z,-23739.38
2022-08-28T00:18:05.715Z,-23737.31
2022-08-28T00:20:10.999Z,-23739.06
2022-08-28T00:22:15.182Z,-23740.78
2022-08-28T00:24:18.627Z,-23742.50
2022-08-28T00:26:35.680Z,-23743.28
2022-08-28T00:28:38.362Z,-23743.28
2022-08-28T00:30:43.586Z,-23746.44
2022-08-28T00:32:46.427Z,-23743.59
2022-08-28T00:34:49.113Z,-23744.25
2022-08-28T00:36:51.761Z,-23742.03
2022-08-28T00:38:56.855Z,-23742.19
2022-08-28T00:41:04.035Z,-23740.47
2022-08-28T00:43:09.900Z,-23740.16
2022-08-28T00:45:12.642Z,-23738.41
2022-08-28T00:47:15.391Z,-23738.41
2022-08-28T00:49:22.213Z,-23737.00
2022-08-28T00:51:42.992Z,-23737.16
2022-08-28T00:53:46.056Z,-23736.69
2022-08-28T00:55:50.773Z,-23737.47
2022-08-28T00:57:55.947Z,-23737.00
2022-08-28T00:59:58.682Z,-23736.69
2022-08-28T01:02:02.152Z,-23736.38
2022-08-28T01:04:06.171Z,-23734.19
2022-08-28T01:06:09.890Z,-23734.03
2022-08-28T01:08:12.796Z,-23733.22
2022-08-28T01:10:21.989Z,-23734.50
2022-08-28T01:12:30.708Z,-23732.91
2022-08-28T01:14:36.266Z,-23732.91
2022-08-28T01:16:41.182Z,-23734.66
2022-08-28T01:18:44.878Z,-23736.06
2022-08-28T01:20:54.177Z,-23735.59
2022-08-28T01:23:04.612Z,-23733.56
2022-08-28T01:25:13.166Z,-23734.31
2022-08-28T01:27:16.072Z,-23734.50
2022-08-28T01:29:20.772Z,-23733.84
2022-08-28T01:31:25.032Z,-23733.69
2022-08-28T01:33:28.949Z,-23731.97
2022-08-28T01:35:34.693Z,-23733.84
2022-08-28T01:37:38.554Z,-23735.44
2022-08-28T01:39:41.253Z,-23731.34
2022-08-28T01:41:47.961Z,-23730.09
2022-08-28T01:43:50.693Z,-23730.09
2022-08-28T01:45:55.999Z,-23730.88
2022-08-28T01:47:58.764Z,-23729.13
2022-08-28T01:50:01.389Z,-23729.13
2022-08-28T01:52:05.419Z,-23726.31
2022-08-28T01:54:09.954Z,-23727.25
2022-08-28T01:56:16.126Z,-23725.69
2022-08-28T01:58:20.751Z,-23723.94
2022-08-28T02:00:26.890Z,-23724.09
2022-08-28T02:02:31.716Z,-21378.91
2022-08-28T02:04:34.492Z,-15574.56
2022-08-28T02:06:37.821Z,-11981.06
2022-08-28T02:08:40.656Z,-8712.16
2022-08-28T02:10:44.611Z,-5113.06
2022-08-28T02:12:49.094Z,783.28
2022-08-28T02:14:53.109Z,1111.13
2022-08-28T02:16:56.205Z,4719.00
2022-08-28T02:18:58.891Z,8987.03
2022-08-28T02:21:01.623Z,10629.22
2022-08-28T02:23:06.052Z,12600.97
2022-08-28T02:25:10.390Z,16548.78
2022-08-28T02:27:13.520Z,20171.88
2022-08-28T02:29:16.190Z,21159.72
2022-08-28T02:31:20.857Z,24787.34
2022-08-28T02:33:23.592Z,25447.81
2022-08-28T02:35:26.257Z,25780.16
2022-08-28T02:37:29.003Z,24462.41
2022-08-28T02:39:32.715Z,22482.59
2022-08-28T02:41:35.362Z,25450.69
2022-08-28T02:43:38.486Z,25120.06
2022-08-28T02:45:41.159Z,26112.38
2022-08-28T02:47:46.726Z,29089.28
2022-08-28T02:49:49.872Z,28753.09
2022-08-28T02:51:52.585Z,28091.13
2022-08-28T02:53:56.475Z,31069.44
2022-08-28T02:56:00.507Z,28756.84
2022-08-28T02:58:03.141Z,28097.94
2022-08-28T03:00:07.572Z,25454.78
2022-08-28T03:02:10.354Z,24133.94
2022-08-28T03:04:14.445Z,23474.69
2022-08-28T03:06:17.144Z,25130.78
2022-08-28T03:08:19.831Z,20842.78
2022-08-28T03:10:26.015Z,16889.53
2022-08-28T03:12:28.981Z,11949.59
2022-08-28T03:14:31.673Z,12934.50
2022-08-28T03:16:34.661Z,19193.69
2022-08-28T03:18:37.773Z,14911.84
2022-08-28T03:20:42.374Z,11293.19
2022-08-28T03:23:05.076Z,5705.84
2022-08-28T03:25:08.549Z,6363.72
2022-08-28T03:27:11.807Z,4722.09
2022-08-28T03:29:14.622Z,5705.84
2022-08-28T03:31:20.983Z,5050.38
2022-08-28T03:33:23.733Z,4722.19
2022-08-28T03:35:26.411Z,784.72
2022-08-28T03:37:30.483Z,2424.59
2022-08-28T03:39:33.113Z,-526.47
2022-08-28T03:41:36.002Z,-2820.75
2022-08-28T03:43:38.981Z,-1837.91
2022-08-28T03:45:41.971Z,3408.69
2022-08-28T03:47:44.669Z,4392.59
2022-08-28T03:49:48.121Z,7018.56
2022-08-28T03:51:50.835Z,12278.06
2022-08-28T03:53:55.453Z,15566.63
2022-08-28T03:55:58.812Z,19189.91
2022-08-28T03:58:02.045Z,18861.59
2022-08-28T04:00:09.188Z,19192.19
2022-08-28T04:02:11.860Z,17543.16
2022-08-28T04:04:14.860Z,16883.03
2022-08-28T04:06:18.232Z,19849.25
2022-08-28T04:08:22.565Z,18534.56
2022-08-28T04:10:26.591Z,15900.84
2022-08-28T04:12:29.259Z,13923.09
2022-08-28T04:14:38.494Z,11949.06
2022-08-28T04:16:41.395Z,14250.19
2022-08-28T04:18:44.227Z,17543.50
2022-08-28T04:20:46.888Z,18204.94
2022-08-28T04:22:49.863Z,11292.31
2022-08-28T04:24:57.847Z,9977.84
2022-08-28T04:27:01.883Z,7347.38
2022-08-28T04:29:05.180Z,4721.75
2022-08-28T04:31:09.031Z,3736.41
2022-08-28T04:33:12.100Z,3080.75
2022-08-28T04:35:16.062Z,-2820.91
2022-08-28T04:37:19.027Z,-2493.50
2022-08-28T04:39:21.743Z,3079.88
2022-08-28T04:41:24.477Z,3079.34
2022-08-28T04:43:28.535Z,6033.41
2022-08-28T04:45:32.049Z,455.66
2022-08-28T04:47:36.615Z,-527.75
2022-08-28T04:49:40.578Z,1439.84
2022-08-28T04:51:43.307Z,5375.22
2022-08-28T04:53:49.713Z,10958.72
2022-08-28T04:55:55.238Z,12275.66
2022-08-28T04:57:58.120Z,14248.53
2022-08-28T05:00:02.303Z,13918.25
2022-08-28T05:02:05.554Z,12273.78
2022-08-28T05:04:08.383Z,12604.50
2022-08-28T05:06:13.882Z,8333.72
2022-08-28T05:08:19.379Z,3408.16
2022-08-28T05:10:22.143Z,2751.66
2022-08-28T05:12:24.875Z,127.81
2022-08-28T05:14:27.549Z,2422.97
2022-08-28T05:16:31.781Z,6032.91
2022-08-28T05:18:34.728Z,3735.38
2022-08-28T05:20:38.523Z,3736.66
2022-08-28T05:22:41.204Z,-1838.03
2022-08-28T05:24:44.241Z,-855.09
2022-08-28T05:26:48.059Z,-6422.69
2022-08-28T05:28:51.449Z,-7731.25
2022-08-28T05:30:54.135Z,-7076.94
2022-08-28T05:32:59.142Z,-6422.63
2022-08-28T05:35:01.820Z,-8386.19
2022-08-28T05:37:06.486Z,-12636.69
2022-08-28T05:39:11.645Z,-20074.91
2022-08-28T05:41:20.579Z,-13290.19
2022-08-28T05:43:23.227Z,-14269.75
2022-08-28T05:45:26.048Z,-13942.47
2022-08-28T05:47:32.450Z,-12308.91
2022-08-28T05:49:36.447Z,-10020.38
2022-08-28T05:51:41.529Z,-6749.94
2022-08-28T05:53:46.452Z,-10348.69
2022-08-28T05:55:51.700Z,-12964.16
2022-08-28T05:57:54.712Z,-23462.16
2022-08-28T05:59:57.429Z,-23728.19
2022-08-28T06:02:04.149Z,-23729.47
2022-08-28T06:04:09.796Z,-23730.72
2022-08-28T06:06:14.410Z,-23732.91
2022-08-28T06:08:17.087Z,-23730.41
2022-08-28T06:10:19.977Z,-23733.56
2022-08-28T06:12:22.725Z,-23733.56
2022-08-28T06:14:25.880Z,-23733.38
2022-08-28T06:16:29.173Z,-23733.56
2022-08-28T06:18:32.371Z,-23734.19
2022-08-28T06:20:37.621Z,-23735.28
2022-08-28T06:22:41.620Z,-23735.59
2022-08-28T06:24:44.279Z,-23736.06
2022-08-28T06:26:47.027Z,-23737.94
2022-08-28T06:28:49.852Z,-23742.34
2022-08-28T06:31:18.686Z,-23740.31
2022-08-28T06:33:17.857Z,-23742.34
2022-08-28T06:35:20.560Z,-23737.94
2022-08-28T06:37:23.225Z,-23745.19
2022-08-28T06:39:27.241Z,-23747.38
2022-08-28T06:41:32.074Z,-23752.09
2022-08-28T06:43:34.785Z,-23748.94
2022-08-28T06:45:42.149Z,-23750.53
2022-08-28T06:47:44.792Z,-23746.13
2022-08-28T06:49:47.450Z,-23749.59
2022-08-28T06:51:50.392Z,-23747.22
2022-08-28T06:53:53.367Z,-23745.03
2022-08-28T06:56:06.483Z,-23745.50
2022-08-28T06:58:10.393Z,-23746.75
2022-08-28T07:00:14.050Z,-23746.91
2022-08-28T07:02:16.870Z,-23748.31
2022-08-28T07:04:19.960Z,-23751.94
2022-08-28T07:06:24.163Z,-23755.09
2022-08-28T07:08:27.966Z,-23751.47
2022-08-28T07:10:31.228Z,-23751.00
2022-08-28T07:12:35.598Z,-23750.53
2022-08-28T07:14:38.660Z,-23749.75
2022-08-28T07:16:41.742Z,-23748.78
2022-08-28T07:18:45.328Z,-23749.13
2022-08-28T07:20:56.554Z,-23747.69
2022-08-28T07:22:59.613Z,-23747.69
2022-08-28T07:25:02.703Z,-23756.50
2022-08-28T07:27:05.497Z,-23759.81
2022-08-28T07:29:11.436Z,-23760.13
2022-08-28T07:31:17.562Z,-23758.38
2022-08-28T07:33:20.309Z,-23760.75
2022-08-28T07:35:23.232Z,-23757.44
2022-08-28T07:37:26.036Z,-23760.13
2022-08-28T07:39:28.689Z,-23768.59
2022-08-28T07:41:33.892Z,-23762.47
2022-08-28T07:43:54.307Z,-23763.09
2022-08-28T07:46:03.161Z,-23763.75
2022-08-28T07:48:11.325Z,-23763.41
2022-08-28T07:50:15.157Z,-23768.59
2022-08-28T07:52:17.877Z,-23776.78
2022-08-28T07:54:20.967Z,-23782.91
2022-08-28T07:56:24.209Z,-23770.34
2022-08-28T07:58:27.258Z,-23780.53
2022-08-28T08:00:29.949Z,-23785.41
2022-08-28T08:02:34.143Z,-23778.19
2022-08-28T08:04:37.301Z,-23766.25
2022-08-28T08:06:42.095Z,-23778.81
2022-08-28T08:08:45.921Z,-23782.44
2022-08-28T08:10:57.415Z,-23787.28
2022-08-28T08:13:00.182Z,-23781.00
2022-08-28T08:15:02.924Z,-23786.97
2022-08-28T08:17:07.444Z,-23782.44
2022-08-28T08:19:14.853Z,-23792.78
2022-08-28T08:21:19.926Z,-23795.31
2022-08-28T08:23:22.903Z,-23797.50
2022-08-28T08:25:25.589Z,-23787.75
2022-08-28T08:27:28.550Z,-23786.97
2022-08-28T08:29:35.876Z,-23801.09
2022-08-28T08:31:38.753Z,-23794.19
2022-08-28T08:33:48.366Z,-23795.63
2022-08-28T08:35:52.418Z,-23799.53
2022-08-28T08:37:55.136Z,-23812.09
2022-08-28T08:39:57.894Z,-23814.28
2022-08-28T08:42:03.814Z,-23804.72
2022-08-28T08:44:09.929Z,-23801.09
2022-08-28T08:46:12.688Z,-23793.25
2022-08-28T08:48:25.834Z,-23806.44
2022-08-28T08:50:31.440Z,-23813.19
2022-08-28T08:52:52.620Z,-23827.63
2022-08-28T08:55:07.099Z,-23827.00
2022-08-28T08:57:12.349Z,-23866.31
2022-08-28T08:59:18.583Z,-23873.53
2022-08-28T09:01:26.827Z,-23906.69
2022-08-28T09:03:45.589Z,-23904.19
2022-08-28T09:05:53.615Z,-23864.91
2022-08-28T09:08:02.656Z,-23840.63
2022-08-28T09:10:08.374Z,-23818.84
2022-08-28T09:12:15.981Z,-23820.41
2022-08-28T09:14:30.763Z,-23829.97
2022-08-28T09:16:37.453Z,-23824.00
2022-08-28T09:18:40.424Z,-23825.13
2022-08-28T09:20:43.147Z,-23826.06
2022-08-28T09:22:48.988Z,-23818.69
2022-08-28T09:24:54.530Z,-23829.34
2022-08-28T09:27:00.211Z,-23841.25
2022-08-28T09:29:06.511Z,-23847.53
2022-08-28T09:31:13.972Z,-23851.91
2022-08-28T09:33:28.184Z,-23871.66
2022-08-28T09:35:32.826Z,-23880.72
2022-08-28T09:37:37.300Z,-23905.75
2022-08-28T09:39:40.584Z,-23937.31
2022-08-28T09:42:17.435Z,-23969.47
2022-08-28T09:44:19.218Z,-23946.53
2022-08-28T09:46:25.692Z,-23934.19
2022-08-28T09:48:35.644Z,-23898.88
2022-08-28T09:50:41.647Z,-23882.28
2022-08-28T09:52:44.359Z,-23858.50
2022-08-28T09:54:48.256Z,-23871.50
2022-08-28T09:56:52.673Z,-23865.53
2022-08-28T09:58:59.434Z,-23887.94
2022-08-28T10:01:11.457Z,-23890.44
2022-08-28T10:03:19.052Z,-23897.78
2022-08-28T10:05:36.184Z,-23951.22
2022-08-28T10:07:48.647Z,-23967.59
2022-08-28T10:10:02.214Z,-23976.50
2022-08-28T10:12:28.877Z,-24013.75
2022-08-28T10:14:45.477Z,-23987.56
2022-08-28T10:16:58.285Z,-23972.44
2022-08-28T10:19:07.316Z,-23973.38
2022-08-28T10:21:19.043Z,-23979.78
2022-08-28T10:23:32.706Z,-23954.50
2022-08-28T10:25:43.292Z,-23899.50
2022-08-28T10:28:03.132Z,-23882.28
2022-08-28T10:30:13.131Z,-23875.56
2022-08-28T10:32:43.632Z,-23875.72
2022-08-28T10:35:01.471Z,-23874.63
2022-08-28T10:37:13.108Z,-23885.75
2022-08-28T10:39:31.299Z,-23902.63
2022-08-28T10:41:42.105Z,-23909.97
2022-08-28T10:43:49.661Z,-23924.34
2022-08-28T10:45:54.812Z,-23922.31
2022-08-28T10:48:01.334Z,-23924.22
2022-08-28T10:50:10.287Z,-23920.75
2022-08-28T10:52:18.048Z,-23942.63
2022-08-28T10:54:27.423Z,-23930.44
2022-08-28T10:56:37.811Z,-23903.25
2022-08-28T10:58:41.709Z,-23889.03
2022-08-28T11:00:47.485Z,-23878.53
2022-08-28T11:02:53.901Z,-23864.13
2022-08-28T11:04:58.883Z,-23855.53
2022-08-28T11:07:05.759Z,-23870.41
2022-08-28T11:09:24.957Z,-23881.19
2022-08-28T11:11:44.111Z,-23907.94
2022-08-28T11:13:56.987Z,-23898.72
2022-08-28T11:16:01.614Z,-23903.56
2022-08-28T11:18:31.773Z,-23893.88
2022-08-28T11:20:35.166Z,-23899.81
2022-08-28T11:22:42.615Z,-23899.81
2022-08-28T11:24:57.967Z,-23895.44
2022-08-28T11:27:21.423Z,-23896.06
2022-08-28T11:30:17.891Z,-23877.91
2022-08-28T11:32:55.204Z,-23902.31
2022-08-28T11:34:59.907Z,-23925.59
2022-08-28T11:37:03.732Z,-23917.63
2022-08-28T11:39:19.118Z,-23922.00
2022-08-28T11:41:26.292Z,-23917.63
2022-08-28T11:43:35.877Z,-23939.66
2022-08-28T11:46:07.357Z,-23920.59
2022-08-28T11:48:48.329Z,-23911.38
2022-08-28T11:50:58.480Z,-23917.63
2022-08-28T11:53:31.563Z,-23936.69
2022-08-28T11:55:56.930Z,-23947.78
2022-08-28T12:00:20.466Z,-23935.13
2022-08-28T12:02:56.523Z,-23924.50
2022-08-28T12:04:59.337Z,-23919.97
2022-08-28T12:07:23.877Z,-23949.03
2022-08-28T12:09:44.022Z,-23941.53
2022-08-28T12:11:59.113Z,-23935.59
2022-08-28T12:14:01.868Z,-23917.31
2022-08-28T12:16:06.863Z,-23902.63
2022-08-28T12:18:18.030Z,-23906.84
2022-08-28T12:20:49.027Z,-23910.91
2022-08-28T12:22:56.376Z,-23924.97
2022-08-28T12:25:03.270Z,-23925.47
2022-08-28T12:27:09.037Z,-23932.78
2022-08-28T12:29:28.021Z,-23936.53
2022-08-28T12:32:13.419Z,-23924.06
2022-08-28T12:34:25.413Z,-23931.69
2022-08-28T12:36:28.905Z,-23931.53
2022-08-28T12:38:35.464Z,-23944.19
2022-08-28T12:40:51.139Z,-23950.75
2022-08-28T12:42:56.491Z,-23945.13
2022-08-28T12:45:03.204Z,-23920.44
2022-08-28T12:47:06.505Z,-23940.59
2022-08-28T12:49:28.394Z,-23943.72
2022-08-28T12:51:33.330Z,-23932.31
2022-08-28T12:53:46.724Z,-23938.88
2022-08-28T12:55:49.521Z,-23955.28
2022-08-28T12:57:52.619Z,-23955.44
2022-08-28T12:59:56.816Z,-23958.88
2022-08-28T13:02:03.108Z,-23965.25
2022-08-28T13:04:27.112Z,-23947.31
2022-08-28T13:06:33.356Z,-23930.44
2022-08-28T13:08:37.386Z,-23922.16
2022-08-28T13:10:44.365Z,-23914.66
2022-08-28T13:12:55.963Z,-23933.25
2022-08-28T13:15:00.174Z,-23940.44
2022-08-28T13:17:03.056Z,-23942.31
2022-08-28T13:19:27.860Z,-23931.53
2022-08-28T13:21:37.322Z,-23949.81
2022-08-28T13:23:40.578Z,-23943.41
2022-08-28T13:25:44.674Z,-23933.25
2022-08-28T13:27:57.271Z,-23923.25
2022-08-28T13:30:05.472Z,-23916.84
2022-08-28T13:32:10.130Z,-23932.16
2022-08-28T13:34:24.588Z,-23940.28
2022-08-28T13:36:27.430Z,-23957.63
2022-08-28T13:38:30.269Z,-23940.91
2022-08-28T13:40:57.452Z,-23939.81
2022-08-28T13:43:06.941Z,-23928.28
2022-08-28T13:45:10.438Z,-23918.88
2022-08-28T13:47:13.886Z,-23910.13
2022-08-28T13:49:16.975Z,-23914.81
2022-08-28T13:51:21.368Z,-23903.25
2022-08-28T13:53:24.193Z,-23923.41
2022-08-28T13:55:27.005Z,-23922.47
2022-08-28T13:57:29.954Z,-23929.19
2022-08-28T13:59:35.411Z,-23921.06
2022-08-28T14:01:56.995Z,-23938.72
2022-08-28T14:04:00.342Z,-23957.31
2022-08-28T14:06:03.760Z,-23941.06
2022-08-28T14:08:06.479Z,-23940.13
2022-08-28T14:10:10.249Z,-23947.94
2022-08-28T14:12:13.255Z,-23935.59
2022-08-28T14:14:16.096Z,-23925.28
2022-08-28T14:16:20.223Z,-23927.31
2022-08-28T14:18:23.859Z,-23927.94
2022-08-28T14:20:26.564Z,-23928.09
2022-08-28T14:22:30.919Z,-23934.97
2022-08-28T14:24:33.703Z,-23930.13
2022-08-28T14:26:36.520Z,-23927.94
2022-08-28T14:28:39.228Z,-23929.66
2022-08-28T14:30:45.248Z,-23933.25
2022-08-28T14:32:49.400Z,-23932.94
2022-08-28T14:34:52.091Z,-23937.47
2022-08-28T14:36:56.023Z,-23936.22
2022-08-28T14:39:05.404Z,-23943.88
2022-08-28T14:41:09.728Z,-23938.25
2022-08-28T14:43:15.363Z,-23939.81
2022-08-28T14:45:18.305Z,-23937.47
2022-08-28T14:47:21.709Z,-23930.91
2022-08-28T14:49:26.853Z,-23928.09
2022-08-28T14:51:31.906Z,-23923.41
2022-08-28T14:53:34.849Z,-23926.38
2022-08-28T14:55:42.388Z,-23935.13
2022-08-28T14:57:46.052Z,-23938.88
2022-08-28T14:59:51.656Z,-23945.13
2022-08-28T15:01:57.997Z,-23950.59
2022-08-28T15:04:01.104Z,-23939.66
2022-08-28T15:06:07.896Z,-23941.06
2022-08-28T15:08:12.809Z,-23944.50
2022-08-28T15:10:15.420Z,-23943.72
2022-08-28T15:12:19.828Z,-23944.50
2022-08-28T15:14:23.252Z,-23953.09
2022-08-28T15:16:30.347Z,-23941.69
2022-08-28T15:18:34.339Z,-23940.75
2022-08-28T15:20:38.959Z,-23945.44
2022-08-28T15:22:43.048Z,-23939.19
2022-08-28T15:24:46.395Z,-23939.34
2022-08-28T15:26:49.200Z,-23947.47
2022-08-28T15:28:55.643Z,-23947.63
2022-08-28T15:30:58.324Z,-23948.88
2022-08-28T15:33:01.073Z,-23956.38
2022-08-28T15:35:03.925Z,-23959.03
2022-08-28T15:37:07.844Z,-23955.75
2022-08-28T15:39:30.863Z,-23948.25
2022-08-28T15:41:33.603Z,-23944.81
2022-08-28T15:43:36.379Z,-23951.53
2022-08-28T15:45:40.036Z,-23947.78
2022-08-28T15:47:42.838Z,-23954.19
2022-08-28T15:49:48.772Z,-23948.56
2022-08-28T15:51:53.241Z,-23941.69
2022-08-28T15:53:56.486Z,-23936.38
2022-08-28T15:56:00.673Z,-23935.75
2022-08-28T15:58:03.414Z,-23930.75
2022-08-28T16:00:10.368Z,-23941.06
2022-08-28T16:02:14.379Z,-23939.50
2022-08-28T16:04:17.642Z,-23941.06
2022-08-28T16:06:22.310Z,-23937.31
2022-08-28T16:08:25.070Z,-23940.75
2022-08-28T16:10:28.128Z,-23927.00
2022-08-28T16:12:32.492Z,-23932.31
2022-08-28T16:14:35.429Z,-23921.22
2022-08-28T16:16:38.484Z,-23921.53
2022-08-28T16:18:42.362Z,-23927.31
2022-08-28T16:20:46.111Z,-23924.97
2022-08-28T16:22:48.801Z,-23918.72
2022-08-28T16:24:51.673Z,-23922.94
2022-08-28T16:26:54.662Z,-23925.91
2022-08-28T16:28:58.894Z,-23924.84
2022-08-28T16:31:04.922Z,-23917.94
2022-08-28T16:33:10.662Z,-23918.88
2022-08-28T16:35:14.860Z,-23912.47
2022-08-28T16:37:20.824Z,-23912.63
2022-08-28T16:39:25.551Z,-23917.63
2022-08-28T16:41:29.177Z,-23913.09
2022-08-28T16:43:34.508Z,-23906.06
2022-08-28T16:45:38.915Z,-23904.97
2022-08-28T16:47:41.654Z,-23909.81
2022-08-28T16:49:44.359Z,-23903.88
2022-08-28T16:51:47.483Z,-23899.81
2022-08-28T16:53:50.123Z,-23902.31
2022-08-28T16:55:52.801Z,-23905.28
2022-08-28T16:57:56.199Z,-23907.31
2022-08-28T17:00:00.030Z,-23902.94
2022-08-28T17:02:04.085Z,-23903.09
2022-08-28T17:04:08.131Z,-23903.25
2022-08-28T17:06:13.783Z,-23901.38
2022-08-28T17:08:16.986Z,-23898.72
2022-08-28T17:10:22.877Z,-23899.34
2022-08-28T17:12:25.595Z,-23899.19
2022-08-28T17:14:28.384Z,-23896.84
2022-08-28T17:16:32.168Z,-23895.75
2022-08-28T17:18:36.557Z,-23893.41
2022-08-28T17:20:56.707Z,-23896.06
2022-08-28T17:22:59.492Z,-23895.44
2022-08-28T17:25:03.569Z,-23894.81
2022-08-28T17:27:06.706Z,-23895.13
2022-08-28T17:29:09.909Z,-23889.34
2022-08-28T17:31:13.765Z,-23891.53
2022-08-28T17:33:16.744Z,-23889.34
2022-08-28T17:35:21.109Z,-23890.44
2022-08-28T17:37:26.067Z,-23890.44
2022-08-28T17:39:28.701Z,-23885.13
2022-08-28T17:41:31.982Z,-23888.72
2022-08-28T17:43:36.015Z,-23888.88
2022-08-28T17:45:38.769Z,-23889.66
2022-08-28T17:47:41.977Z,-23885.41
2022-08-28T17:49:44.716Z,-23884.47
2022-08-28T17:51:48.858Z,-23883.22
2022-08-28T17:53:51.543Z,-23879.63
2022-08-28T17:55:54.242Z,-23876.19
2022-08-28T17:57:56.972Z,-23875.09
2022-08-28T18:00:00.923Z,-23871.97
2022-08-28T18:02:03.709Z,-23872.75
2022-08-28T18:04:06.828Z,-23871.34
2022-08-28T18:06:09.569Z,-23868.84
2022-08-28T18:08:13.902Z,-23866.47
2022-08-28T18:10:16.845Z,-23865.06
2022-08-28T18:12:19.730Z,-23867.25
2022-08-28T18:14:22.594Z,-23861.31
2022-08-28T18:16:30.359Z,-23856.63
2022-08-28T18:18:36.352Z,-23853.78
2022-08-28T18:20:39.359Z,-23854.72
2022-08-28T18:22:42.084Z,-23848.16
2022-08-28T18:24:46.204Z,-23849.72
2022-08-28T18:26:49.438Z,-23851.13
2022-08-28T18:28:52.626Z,-23849.41
2022-08-28T18:30:55.626Z,-23846.75
2022-08-28T18:32:58.617Z,-23841.56
2022-08-28T18:35:01.348Z,-23839.06
2022-08-28T18:37:04.101Z,-23838.91
2022-08-28T18:39:06.925Z,-23838.44
2022-08-28T18:41:12.131Z,-23835.31
2022-08-28T18:43:15.112Z,-23834.38
2022-08-28T18:45:18.709Z,-23831.22
2022-08-28T18:47:21.492Z,-23831.22
2022-08-28T18:49:24.186Z,-23831.06
2022-08-28T18:51:27.045Z,-23825.28
2022-08-28T18:53:29.841Z,-23826.53
2022-08-28T18:55:33.782Z,-23825.13
2022-08-28T18:57:37.843Z,-23821.03
2022-08-28T18:59:40.632Z,-23817.91
2022-08-28T19:01:43.687Z,-23817.91
2022-08-28T19:03:46.562Z,-23818.22
2022-08-28T19:05:49.591Z,-23816.34
2022-08-28T19:07:53.274Z,-23814.91
2022-08-28T19:09:57.274Z,-23815.53
2022-08-28T19:12:00.082Z,-23812.72
2022-08-28T19:14:04.736Z,-23813.81
2022-08-28T19:16:07.800Z,-23815.22
2022-08-28T19:18:11.859Z,-23816.19
2022-08-28T19:20:19.618Z,-23815.53
2022-08-28T19:22:23.369Z,-23827.16
2022-08-28T19:24:30.370Z,-23830.13
2022-08-28T19:26:33.597Z,-23825.91
2022-08-28T19:28:37.431Z,-23823.06
2022-08-28T19:30:42.089Z,-23823.38
2022-08-28T19:32:46.370Z,-23819.31
2022-08-28T19:34:49.050Z,-23815.84
2022-08-28T19:36:51.950Z,-23816.00
2022-08-28T19:38:54.683Z,-23816.47
2022-08-28T19:40:57.465Z,-23817.59
2022-08-28T19:43:00.727Z,-23813.97
2022-08-28T19:45:03.896Z,-23814.28
2022-08-28T19:47:08.150Z,-23813.34
2022-08-28T19:49:11.099Z,-23810.69
2022-08-28T19:51:22.465Z,-23812.25
2022-08-28T19:53:26.345Z,-23811.78
2022-08-28T19:55:29.820Z,-23808.03
2022-08-28T19:57:32.702Z,-23810.22
2022-08-28T19:59:36.177Z,-23808.31
2022-08-28T20:01:43.480Z,-23807.69
2022-08-28T20:03:47.933Z,-23809.13
2022-08-28T20:05:50.854Z,-23807.06
2022-08-28T20:07:53.706Z,-23804.56
2022-08-28T20:09:56.360Z,-23802.06
2022-08-28T20:12:00.768Z,-23802.06
2022-08-28T20:14:06.062Z,-23801.28
2022-08-28T20:16:09.135Z,-23800.16
2022-08-28T20:18:12.359Z,-23800.78
2022-08-28T20:20:17.702Z,-23800.47
2022-08-28T20:22:20.399Z,-23798.59
2022-08-28T20:24:24.896Z,-23796.41
2022-08-28T20:26:28.090Z,-23797.81
2022-08-28T20:28:31.601Z,-23793.88
2022-08-28T20:30:34.312Z,-23788.72
2022-08-28T20:32:39.956Z,-23787.91
2022-08-28T20:34:44.608Z,-23785.25
2022-08-28T20:36:49.192Z,-23784.00
2022-08-28T20:38:51.880Z,-23784.16
2022-08-28T20:41:02.817Z,-23783.84
2022-08-28T20:43:06.500Z,-23783.22
2022-08-28T20:45:09.960Z,-23781.97
2022-08-28T20:47:12.566Z,-23781.34
2022-08-28T20:49:16.288Z,-23781.81
2022-08-28T20:51:39.379Z,-23783.53
2022-08-28T20:53:43.460Z,-23782.13
2022-08-28T20:55:46.744Z,-23782.91
2022-08-28T20:57:49.432Z,-23786.66
2022-08-28T20:59:54.066Z,-23787.44
2022-08-28T21:01:56.792Z,-23788.88
2022-08-28T21:03:59.580Z,-23783.84
2022-08-28T21:06:02.348Z,-23783.84
2022-08-28T21:08:05.090Z,-23778.34
2022-08-28T21:10:09.859Z,-23777.88
2022-08-28T21:12:12.905Z,-23781.50
2022-08-28T21:14:16.035Z,-23784.47
2022-08-28T21:16:19.088Z,-23785.72
2022-08-28T21:18:21.805Z,-23783.53
2022-08-28T21:20:26.798Z,-23786.19
2022-08-28T21:22:31.478Z,-23784.63
2022-08-28T21:24:34.292Z,-23785.41
2022-08-28T21:26:40.500Z,-23781.66
2022-08-28T21:28:45.388Z,-23781.19
2022-08-28T21:30:48.145Z,-23779.75
2022-08-28T21:32:51.160Z,-23778.03
2022-08-28T21:34:55.689Z,-23773.63
2022-08-28T21:36:58.541Z,-23776.63
2022-08-28T21:39:01.216Z,-23776.31
2022-08-28T21:41:05.088Z,-23776.31
2022-08-28T21:43:09.202Z,-23775.34
2022-08-28T21:45:13.220Z,-23775.34
2022-08-28T21:47:15.908Z,-23772.69
2022-08-28T21:49:18.626Z,-23770.97
2022-08-28T21:51:21.647Z,-23768.28
2022-08-28T21:53:25.007Z,-23765.47
2022-08-28T21:55:27.691Z,-23764.03
2022-08-28T21:57:31.192Z,-23762.78
2022-08-28T21:59:37.867Z,-23762.63
2022-08-28T22:01:41.078Z,-23763.75
2022-08-28T22:03:44.496Z,-23764.03
2022-08-28T22:05:49.424Z,-23765.00
2022-08-28T22:07:52.145Z,-23765.16
2022-08-28T22:09:54.841Z,-23764.38
2022-08-28T22:11:57.578Z,-23760.91
2022-08-28T22:14:00.992Z,-23760.28
2022-08-28T22:16:05.601Z,-23760.59
2022-08-28T22:18:08.893Z,-23758.72
2022-08-28T22:20:12.050Z,-23758.06
2022-08-28T22:22:32.764Z,-23758.25
2022-08-28T22:24:36.559Z,-23756.50
2022-08-28T22:26:39.269Z,-23756.81
2022-08-28T22:28:42.011Z,-23756.19
2022-08-28T22:30:44.717Z,-23757.44
2022-08-28T22:32:48.981Z,-23760.28
2022-08-28T22:34:51.616Z,-23759.34
2022-08-28T22:36:54.259Z,-23759.34
2022-08-28T22:38:58.305Z,-23756.19
2022-08-28T22:41:00.997Z,-23755.09
2022-08-28T22:43:03.738Z,-23752.41
2022-08-28T22:45:07.444Z,-23749.59
2022-08-28T22:47:10.083Z,-23749.13
2022-08-28T22:49:14.187Z,-23751.78
2022-08-28T22:51:19.232Z,-23750.53
2022-08-28T22:53:22.133Z,-23748.31
2022-08-28T22:55:24.998Z,-23749.28
2022-08-28T22:57:29.234Z,-23748.31
2022-08-28T22:59:32.274Z,-23747.38
2022-08-28T23:01:35.365Z,-23748.00
2022-08-28T23:03:38.163Z,-23746.44
2022-08-28T23:05:42.609Z,-23745.19
2022-08-28T23:07:45.527Z,-23746.13
2022-08-28T23:09:48.312Z,-23745.97
2022-08-28T23:11:51.313Z,-23746.59
2022-08-28T23:13:54.035Z,-23746.75
2022-08-28T23:15:56.734Z,-23745.50
2022-08-28T23:17:59.466Z,-23748.16
2022-08-28T23:20:05.633Z,-23748.00
2022-08-28T23:22:09.710Z,-23749.44
2022-08-28T23:24:13.472Z,-23749.59
2022-08-28T23:26:17.159Z,-23753.03
2022-08-28T23:28:20.778Z,-23754.47
2022-08-28T23:30:24.469Z,-23754.16
2022-08-28T23:32:28.422Z,-23752.88
2022-08-28T23:34:31.121Z,-23751.78
2022-08-28T23:36:35.874Z,-23749.91
2022-08-28T23:38:42.910Z,-23752.56
2022-08-28T23:40:46.058Z,-23752.72
2022-08-28T23:42:48.950Z,-23752.09
2022-08-28T23:44:52.319Z,-23751.63
2022-08-28T23:46:56.329Z,-23750.22
2022-08-28T23:49:00.027Z,-23749.91
2022-08-28T23:51:02.908Z,-23747.38
2022-08-28T23:53:05.892Z,-23747.84
2022-08-28T23:55:12.052Z,-23747.53
2022-08-28T23:57:14.952Z,-23746.59
2022-08-28T23:59:21.319Z,-23744.88
